Time;durP1;ratioP1;P1;durP2;ratioP2;P2;SDS_P1;SDS_P2;PMS_P1;PMS_P2;Temp;Humidity;BMP_temperature;BMP_pressure;BME280_temperature;BME280_humidity;BME280_pressure;Samples;Min_cycle;Max_cycle;Signal;HPM_P1;HPM_P2
2022/09/17 00:00:24;;;;;;;11.20;2.40;;;;;;;;;;4972887;28;21029;-76
2022/09/17 00:02:55;;;;;;;13.67;3.00;;;;;;;;;;4968633;28;20601;-75
2022/09/17 00:05:22;;;;;;;13.37;2.43;;;;;;;;;;4972616;28;20233;-76
2022/09/17 00:07:48;;;;;;;11.60;2.53;;;;;;;;;;4957455;28;20250;-75
2022/09/17 00:10:17;;;;;;;9.80;2.53;;;;;;;;;;4955711;28;20231;-77
2022/09/17 00:12:45;;;;;;;13.77;2.83;;;;;;;;;;4942428;28;20788;-75
2022/09/17 00:15:10;;;;;;;15.10;3.00;;;;;;;;;;4968919;28;20241;-76
2022/09/17 00:17:36;;;;;;;13.00;2.90;;;;;;;;;;4954812;28;20242;-77
2022/09/17 00:20:03;;;;;;;13.30;2.50;;;;;;;;;;4967730;28;20222;-77
2022/09/17 00:22:28;;;;;;;12.57;2.63;;;;;;;;;;4952947;28;20226;-73
2022/09/17 00:24:54;;;;;;;12.40;2.37;;;;;;;;;;4959671;28;20406;-76
2022/09/17 00:27:21;;;;;;;10.77;2.73;;;;;;;;;;4958529;28;20231;-75
2022/09/17 00:29:49;;;;;;;11.97;2.77;;;;;;;;;;4960434;28;20230;-75
2022/09/17 00:32:18;;;;;;;13.30;2.70;;;;;;;;;;4954219;28;20249;-76
2022/09/17 00:34:50;;;;;;;13.93;2.60;;;;;;;;;;4960266;28;20623;-76
2022/09/17 00:37:17;;;;;;;12.97;2.80;;;;;;;;;;4976246;28;20225;-75
2022/09/17 00:39:47;;;;;;;10.07;2.40;;;;;;;;;;4964601;28;20324;-75
2022/09/17 00:42:13;;;;;;;9.37;2.67;;;;;;;;;;4974724;28;20291;-76
2022/09/17 00:44:51;;;;;;;15.73;2.97;;;;;;;;;;4964474;28;20222;-76
2022/09/17 00:47:40;;;;;;;13.83;2.53;;;;;;;;;;4975094;28;20226;-75
2022/09/17 00:50:09;;;;;;;13.90;3.17;;;;;;;;;;4959010;28;20321;-75
2022/09/17 00:52:39;;;;;;;15.43;3.07;;;;;;;;;;4971872;28;20234;-76
2022/09/17 00:55:20;;;;;;;11.33;2.67;;;;;;;;;;4946061;28;20230;-76
2022/09/17 00:57:53;;;;;;;9.33;2.33;;;;;;;;;;4945733;28;20225;-76
2022/09/17 01:00:21;;;;;;;15.43;2.97;;;;;;;;;;4933507;28;20384;-77
2022/09/17 01:02:47;;;;;;;15.00;2.70;;;;;;;;;;4970960;28;20223;-76
2022/09/17 01:05:15;;;;;;;11.70;2.67;;;;;;;;;;4951531;28;20205;-73
2022/09/17 01:08:06;;;;;;;17.93;3.43;;;;;;;;;;4947526;28;20313;-76
2022/09/17 01:10:43;;;;;;;16.03;3.10;;;;;;;;;;4965606;28;20230;-74
2022/09/17 01:13:32;;;;;;;13.83;3.00;;;;;;;;;;4957279;28;20319;-76
2022/09/17 01:16:04;;;;;;;12.20;3.20;;;;;;;;;;4967876;28;20762;-76
2022/09/17 01:19:07;;;;;;;19.97;3.87;;;;;;;;;;4970641;28;20229;-75
2022/09/17 01:21:43;;;;;;;13.00;3.53;;;;;;;;;;4983386;28;20930;-76
2022/09/17 01:24:25;;;;;;;18.47;3.83;;;;;;;;;;4974861;28;20256;-77
2022/09/17 01:27:05;;;;;;;16.93;3.33;;;;;;;;;;4969786;28;20294;-77
2022/09/17 01:30:01;;;;;;;11.60;3.80;;;;;;;;;;4983175;28;20695;-76
2022/09/17 01:32:40;;;;;;;14.33;3.40;;;;;;;;;;4966899;28;20290;-75
2022/09/17 01:35:20;;;;;;;12.50;3.90;;;;;;;;;;4955445;28;20236;-72
2022/09/17 01:37:51;;;;;;;22.07;3.67;;;;;;;;;;4969741;28;20264;-75
2022/09/17 01:40:27;;;;;;;13.80;3.27;;;;;;;;;;4965661;28;20230;-75
2022/09/17 01:43:11;;;;;;;16.30;3.57;;;;;;;;;;4959143;28;20233;-75
2022/09/17 01:45:43;;;;;;;14.23;3.10;;;;;;;;;;4945546;28;20320;-75
2022/09/17 01:48:35;;;;;;;18.40;3.40;;;;;;;;;;4972960;28;20316;-75
2022/09/17 01:51:13;;;;;;;13.23;3.47;;;;;;;;;;4965754;28;20241;-76
2022/09/17 01:53:47;;;;;;;12.30;3.33;;;;;;;;;;4955300;28;20703;-75
2022/09/17 01:56:16;;;;;;;13.80;3.13;;;;;;;;;;4945447;28;20223;-73
2022/09/17 01:58:44;;;;;;;15.73;3.73;;;;;;;;;;4959102;28;20232;-75
2022/09/17 02:01:10;;;;;;;14.97;3.50;;;;;;;;;;4971019;28;20226;-75
2022/09/17 02:03:43;;;;;;;11.50;3.17;;;;;;;;;;4958846;28;20234;-76
2022/09/17 02:06:12;;;;;;;16.30;3.20;;;;;;;;;;4943096;28;20221;-75
2022/09/17 02:08:46;;;;;;;18.90;3.87;;;;;;;;;;4965169;28;20313;-74
2022/09/17 02:11:14;;;;;;;15.40;4.17;;;;;;;;;;4954143;28;20233;-74
2022/09/17 02:13:54;;;;;;;15.97;3.40;;;;;;;;;;4962717;28;20296;-75
2022/09/17 02:16:27;;;;;;;18.60;4.07;;;;;;;;;;4966272;28;20233;-74
2022/09/17 02:19:23;;;;;;;21.00;4.37;;;;;;;;;;4957033;28;20229;-75
2022/09/17 02:22:05;;;;;;;18.07;3.70;;;;;;;;;;4936406;28;20230;-75
2022/09/17 02:24:33;;;;;;;12.17;3.20;;;;;;;;;;4956935;28;20221;-76
2022/09/17 02:27:44;;;;;;;16.00;3.23;;;;;;;;;;4982705;28;20221;-75
2022/09/17 02:30:13;;;;;;;19.03;3.70;;;;;;;;;;4958778;28;20234;-76
2022/09/17 02:32:43;;;;;;;20.83;3.83;;;;;;;;;;4948932;28;20234;-75
2022/09/17 02:35:13;;;;;;;16.93;3.90;;;;;;;;;;4950756;28;20229;-74
2022/09/17 02:37:44;;;;;;;15.67;3.40;;;;;;;;;;4973216;28;20230;-74
2022/09/17 02:40:10;;;;;;;14.23;3.47;;;;;;;;;;4965240;28;20229;-75
2022/09/17 02:42:51;;;;;;;13.23;3.40;;;;;;;;;;4966629;28;20614;-75
2022/09/17 02:45:26;;;;;;;20.70;4.00;;;;;;;;;;4978195;28;20232;-76
2022/09/17 02:48:01;;;;;;;16.80;3.97;;;;;;;;;;4979683;28;20318;-75
2022/09/17 02:50:52;;;;;;;17.47;3.70;;;;;;;;;;4975053;28;20234;-75
2022/09/17 02:53:29;;;;;;;14.33;3.30;;;;;;;;;;4948050;28;20910;-76
2022/09/17 02:56:05;;;;;;;16.77;3.60;;;;;;;;;;4974255;28;20288;-75
2022/09/17 02:58:44;;;;;;;17.07;3.13;;;;;;;;;;4951864;28;20222;-75
2022/09/17 03:01:36;;;;;;;15.83;3.50;;;;;;;;;;4944160;28;20262;-75
2022/09/17 03:04:01;;;;;;;16.67;3.10;;;;;;;;;;4943809;28;20619;-76
2022/09/17 03:06:29;;;;;;;13.90;3.20;;;;;;;;;;4957044;28;20875;-75
2022/09/17 03:08:57;;;;;;;13.10;3.37;;;;;;;;;;4973956;28;20227;-74
2022/09/17 03:11:26;;;;;;;11.80;2.83;;;;;;;;;;4954457;28;20245;-75
2022/09/17 03:13:51;;;;;;;18.27;3.53;;;;;;;;;;4977403;28;20230;-75
2022/09/17 03:16:20;;;;;;;17.83;3.30;;;;;;;;;;4946012;28;20607;-75
2022/09/17 03:18:45;;;;;;;15.03;3.17;;;;;;;;;;4965127;28;20669;-75
2022/09/17 03:21:11;;;;;;;14.67;3.07;;;;;;;;;;4948164;28;20261;-76
2022/09/17 03:23:38;;;;;;;13.93;3.27;;;;;;;;;;4968339;28;20222;-75
2022/09/17 03:26:13;;;;;;;11.17;2.67;;;;;;;;;;4969108;28;20222;-75
2022/09/17 03:28:39;;;;;;;13.07;2.70;;;;;;;;;;4962675;28;20228;-75
2022/09/17 03:31:07;;;;;;;16.80;3.20;;;;;;;;;;4947824;28;20234;-75
2022/09/17 03:33:32;;;;;;;12.70;3.00;;;;;;;;;;4976640;28;20236;-76
2022/09/17 03:35:58;;;;;;;21.07;3.20;;;;;;;;;;4967327;28;20631;-75
2022/09/17 03:38:23;;;;;;;9.17;2.63;;;;;;;;;;4960804;28;20225;-76
2022/09/17 03:41:01;;;;;;;10.60;2.80;;;;;;;;;;4958685;28;20237;-76
2022/09/17 03:43:29;;;;;;;9.83;2.60;;;;;;;;;;4947231;28;20230;-75
2022/09/17 03:45:55;;;;;;;10.70;2.70;;;;;;;;;;4955077;28;20254;-77
2022/09/17 03:48:22;;;;;;;10.93;2.60;;;;;;;;;;4973801;28;20796;-73
2022/09/17 03:50:50;;;;;;;12.07;2.70;;;;;;;;;;4969068;28;20651;-76
2022/09/17 03:53:19;;;;;;;11.53;2.70;;;;;;;;;;4954363;28;20609;-76
2022/09/17 03:55:44;;;;;;;9.70;2.40;;;;;;;;;;4965925;28;20222;-77
2022/09/17 03:58:10;;;;;;;12.40;2.57;;;;;;;;;;4961314;28;20226;-76
2022/09/17 04:00:38;;;;;;;11.27;2.80;;;;;;;;;;4941869;28;20645;-75
2022/09/17 04:03:06;;;;;;;8.37;2.73;;;;;;;;;;4942700;28;20229;-76
2022/09/17 04:05:34;;;;;;;12.33;2.60;;;;;;;;;;4961491;28;20236;-76
2022/09/17 04:08:02;;;;;;;7.87;2.23;;;;;;;;;;4976939;28;20233;-75
2022/09/17 04:10:30;;;;;;;8.00;2.30;;;;;;;;;;4963261;28;20691;-76
2022/09/17 04:12:55;;;;;;;9.07;2.20;;;;;;;;;;4959886;28;20229;-75
2022/09/17 04:15:21;;;;;;;7.20;2.50;;;;;;;;;;4973836;28;20223;-75
2022/09/17 04:17:46;;;;;;;15.70;2.43;;;;;;;;;;4975793;28;20237;-75
2022/09/17 04:20:14;;;;;;;12.57;2.63;;;;;;;;;;4977285;28;20248;-76
2022/09/17 04:22:40;;;;;;;12.30;2.17;;;;;;;;;;4967407;28;20601;-75
2022/09/17 04:25:09;;;;;;;12.90;2.30;;;;;;;;;;4950676;28;20762;-75
2022/09/17 04:27:35;;;;;;;10.67;2.60;;;;;;;;;;4944873;28;20253;-75
2022/09/17 04:30:00;;;;;;;11.60;2.63;;;;;;;;;;4970110;28;20230;-75
2022/09/17 04:32:30;;;;;;;9.23;2.30;;;;;;;;;;4943722;28;20230;-74
2022/09/17 04:35:00;;;;;;;8.37;2.50;;;;;;;;;;4966205;28;21144;-75
2022/09/17 04:37:26;;;;;;;13.93;2.50;;;;;;;;;;4967333;28;20234;-74
2022/09/17 04:39:54;;;;;;;7.07;2.10;;;;;;;;;;4958069;28;20253;-75
2022/09/17 04:42:24;;;;;;;12.20;1.90;;;;;;;;;;4958373;28;20260;-75
2022/09/17 04:44:49;;;;;;;6.63;2.10;;;;;;;;;;4961576;28;20708;-75
2022/09/17 04:47:15;;;;;;;9.20;2.27;;;;;;;;;;4956165;28;20226;-76
2022/09/17 04:49:43;;;;;;;6.50;2.10;;;;;;;;;;4921850;28;20748;-76
2022/09/17 04:52:10;;;;;;;10.53;1.90;;;;;;;;;;4958580;28;20321;-76
2022/09/17 04:54:40;;;;;;;5.27;1.50;;;;;;;;;;4961328;28;20243;-76
2022/09/17 04:57:06;;;;;;;5.90;1.53;;;;;;;;;;4973824;28;20233;-77
2022/09/17 04:59:31;;;;;;;7.30;1.77;;;;;;;;;;4972481;28;20217;-77
2022/09/17 05:01:57;;;;;;;7.00;1.67;;;;;;;;;;4975417;28;20230;-77
2022/09/17 05:04:25;;;;;;;8.30;1.80;;;;;;;;;;4964602;28;20214;-77
2022/09/17 05:06:50;;;;;;;7.83;1.73;;;;;;;;;;4973577;28;20248;-77
2022/09/17 05:09:18;;;;;;;8.53;2.13;;;;;;;;;;4946587;28;20237;-74
2022/09/17 05:11:44;;;;;;;6.33;1.70;;;;;;;;;;4965574;28;20234;-75
2022/09/17 05:14:09;;;;;;;12.50;2.33;;;;;;;;;;4968358;28;20232;-75
2022/09/17 05:16:35;;;;;;;9.63;2.33;;;;;;;;;;4965721;28;20774;-77
2022/09/17 05:19:00;;;;;;;12.43;1.90;;;;;;;;;;4970826;28;20734;-74
2022/09/17 05:21:26;;;;;;;12.93;2.50;;;;;;;;;;4954516;28;20218;-77
2022/09/17 05:23:57;;;;;;;9.97;2.10;;;;;;;;;;4980212;28;20250;-76
2022/09/17 05:26:22;;;;;;;9.13;2.10;;;;;;;;;;4960789;28;20269;-76
2022/09/17 05:28:50;;;;;;;11.47;2.50;;;;;;;;;;4955461;28;20765;-75
2022/09/17 05:31:16;;;;;;;11.33;2.90;;;;;;;;;;4973472;28;20249;-75
2022/09/17 05:33:41;;;;;;;10.10;2.70;;;;;;;;;;4955530;28;20227;-76
2022/09/17 05:36:07;;;;;;;12.20;2.90;;;;;;;;;;4975654;28;20237;-74
2022/09/17 05:38:32;;;;;;;13.27;3.30;;;;;;;;;;4943943;28;20742;-75
2022/09/17 05:41:00;;;;;;;10.20;3.13;;;;;;;;;;4971527;28;20229;-76
2022/09/17 05:43:28;;;;;;;10.90;3.10;;;;;;;;;;4974342;28;20221;-75
2022/09/17 05:45:54;;;;;;;8.33;3.03;;;;;;;;;;4962070;28;20251;-74
2022/09/17 05:48:20;;;;;;;10.30;3.23;;;;;;;;;;4985118;28;20610;-74
2022/09/17 05:50:47;;;;;;;10.50;2.90;;;;;;;;;;4980429;28;20666;-75
2022/09/17 05:53:15;;;;;;;14.83;3.17;;;;;;;;;;4950563;28;20306;-76
2022/09/17 05:55:41;;;;;;;7.17;2.30;;;;;;;;;;4946802;28;20609;-75
2022/09/17 05:58:13;;;;;;;6.97;2.57;;;;;;;;;;4935219;28;20317;-75
2022/09/17 06:00:42;;;;;;;12.73;3.00;;;;;;;;;;4955283;28;20658;-75
2022/09/17 06:03:10;;;;;;;11.07;2.60;;;;;;;;;;4947445;28;20686;-75
2022/09/17 06:05:36;;;;;;;12.17;2.40;;;;;;;;;;4957652;28;20320;-74
2022/09/17 06:08:02;;;;;;;11.13;2.90;;;;;;;;;;4954867;28;20692;-73
2022/09/17 06:10:27;;;;;;;10.83;2.57;;;;;;;;;;4940771;28;20236;-74
2022/09/17 06:12:57;;;;;;;10.70;2.33;;;;;;;;;;4940351;28;20891;-74
2022/09/17 06:15:25;;;;;;;14.47;2.97;;;;;;;;;;4944985;28;20743;-73
2022/09/17 06:17:51;;;;;;;8.70;2.47;;;;;;;;;;4959859;28;20221;-74
2022/09/17 06:20:19;;;;;;;9.73;2.80;;;;;;;;;;4981299;28;20238;-74
2022/09/17 06:22:45;;;;;;;12.93;2.50;;;;;;;;;;4950062;28;20240;-73
2022/09/17 06:25:11;;;;;;;7.80;2.13;;;;;;;;;;4939231;28;20657;-74
2022/09/17 06:27:36;;;;;;;8.03;2.43;;;;;;;;;;4963969;28;20229;-74
2022/09/17 06:30:05;;;;;;;7.77;2.37;;;;;;;;;;4949672;28;20221;-74
2022/09/17 06:32:31;;;;;;;8.73;2.27;;;;;;;;;;4942518;28;20226;-74
2022/09/17 06:34:59;;;;;;;7.33;1.80;;;;;;;;;;4970202;28;20239;-75
2022/09/17 06:37:33;;;;;;;7.30;1.80;;;;;;;;;;4937702;28;20242;-75
2022/09/17 06:39:58;;;;;;;8.47;2.07;;;;;;;;;;4944681;28;20317;-76
2022/09/17 06:42:27;;;;;;;11.17;2.17;;;;;;;;;;4948706;28;20314;-75
2022/09/17 06:44:57;;;;;;;8.27;2.30;;;;;;;;;;4966315;28;20222;-74
2022/09/17 06:47:26;;;;;;;8.13;2.10;;;;;;;;;;4959483;28;20234;-74
2022/09/17 06:49:55;;;;;;;7.13;2.10;;;;;;;;;;4939057;28;20242;-74
2022/09/17 06:52:24;;;;;;;4.87;1.97;;;;;;;;;;4938380;28;20218;-76
2022/09/17 06:54:50;;;;;;;9.00;2.70;;;;;;;;;;4944689;28;20314;-73
2022/09/17 06:57:18;;;;;;;11.80;2.37;;;;;;;;;;4952674;28;20683;-73
2022/09/17 06:59:43;;;;;;;7.07;1.77;;;;;;;;;;4939789;28;20245;-74
2022/09/17 07:02:09;;;;;;;8.00;2.27;;;;;;;;;;4945006;28;20214;-74
2022/09/17 07:04:35;;;;;;;6.40;1.83;;;;;;;;;;4947810;28;20229;-76
2022/09/17 07:07:10;;;;;;;8.43;2.03;;;;;;;;;;4945537;28;20260;-75
2022/09/17 07:09:43;;;;;;;5.20;1.97;;;;;;;;;;4956689;28;20237;-73
2022/09/17 07:12:09;;;;;;;7.40;1.90;;;;;;;;;;4958410;28;20294;-73
2022/09/17 07:14:34;;;;;;;6.43;2.00;;;;;;;;;;4965671;28;20906;-73
2022/09/17 07:17:02;;;;;;;7.13;1.87;;;;;;;;;;4971413;28;20642;-75
2022/09/17 07:19:27;;;;;;;6.93;2.30;;;;;;;;;;4984256;28;20234;-74
2022/09/17 07:21:56;;;;;;;7.57;1.93;;;;;;;;;;4964953;28;20219;-75
2022/09/17 07:24:24;;;;;;;9.37;2.03;;;;;;;;;;4972870;28;20232;-75
2022/09/17 07:26:50;;;;;;;9.07;2.60;;;;;;;;;;4963492;28;20304;-76
2022/09/17 07:29:16;;;;;;;6.40;2.10;;;;;;;;;;4964419;28;20284;-75
2022/09/17 07:32:00;;;;;;;8.83;2.27;;;;;;;;;;4955232;28;20238;-74
2022/09/17 07:34:29;;;;;;;8.77;2.27;;;;;;;;;;4954758;28;20325;-75
2022/09/17 07:36:57;;;;;;;6.10;1.80;;;;;;;;;;4941947;28;20231;-76
2022/09/17 07:39:26;;;;;;;9.13;2.17;;;;;;;;;;4955224;28;20633;-75
2022/09/17 07:41:51;;;;;;;7.77;2.17;;;;;;;;;;4966669;28;20225;-74
2022/09/17 07:44:17;;;;;;;10.17;3.70;;;;;;;;;;4964834;28;20221;-74
2022/09/17 07:46:45;;;;;;;5.07;1.80;;;;;;;;;;4973822;28;20224;-74
2022/09/17 07:49:11;;;;;;;10.47;2.40;;;;;;;;;;4978917;28;20225;-76
2022/09/17 07:51:45;;;;;;;6.23;2.03;;;;;;;;;;4961206;28;20728;-72
2022/09/17 07:54:13;;;;;;;6.97;2.20;;;;;;;;;;4952090;28;20234;-74
2022/09/17 07:56:50;;;;;;;7.63;2.63;;;;;;;;;;4978417;28;20643;-72
2022/09/17 07:59:20;;;;;;;8.13;2.40;;;;;;;;;;4918016;28;20264;-73
2022/09/17 08:01:47;;;;;;;7.43;2.27;;;;;;;;;;4961656;28;20222;-75
2022/09/17 08:04:13;;;;;;;10.13;2.23;;;;;;;;;;4971348;28;20299;-73
2022/09/17 08:06:41;;;;;;;7.40;2.10;;;;;;;;;;4950968;28;20226;-74
2022/09/17 08:09:08;;;;;;;10.23;2.50;;;;;;;;;;4953810;28;20229;-75
2022/09/17 08:11:36;;;;;;;6.40;2.23;;;;;;;;;;4940608;28;20310;-74
2022/09/17 08:14:04;;;;;;;6.93;2.10;;;;;;;;;;4974765;28;20232;-76
2022/09/17 08:16:30;;;;;;;7.20;2.10;;;;;;;;;;4959777;28;20222;-75
2022/09/17 08:18:56;;;;;;;6.63;2.60;;;;;;;;;;4945019;28;20313;-74
2022/09/17 08:21:21;;;;;;;8.17;1.93;;;;;;;;;;4958566;28;20978;-77
2022/09/17 08:23:47;;;;;;;10.20;2.30;;;;;;;;;;4964385;28;20601;-76
2022/09/17 08:26:21;;;;;;;9.30;2.30;;;;;;;;;;4972634;28;20280;-76
2022/09/17 08:28:56;;;;;;;11.47;2.70;;;;;;;;;;4957859;28;20323;-75
2022/09/17 08:31:27;;;;;;;8.70;2.10;;;;;;;;;;4928209;28;20287;-75
2022/09/17 08:33:52;;;;;;;8.53;1.90;;;;;;;;;;4955642;28;20265;-76
2022/09/17 08:36:21;;;;;;;9.03;2.00;;;;;;;;;;4942188;28;20242;-75
2022/09/17 08:38:50;;;;;;;6.37;2.07;;;;;;;;;;4943609;28;20231;-76
2022/09/17 08:41:37;;;;;;;8.80;2.70;;;;;;;;;;4953800;28;20240;-74
2022/09/17 08:44:03;;;;;;;9.17;2.30;;;;;;;;;;4978452;28;20230;-75
2022/09/17 08:47:00;;;;;;;10.10;2.33;;;;;;;;;;4961531;28;20211;-75
2022/09/17 08:49:47;;;;;;;8.53;2.60;;;;;;;;;;4960386;28;20709;-76
2022/09/17 08:52:49;;;;;;;10.17;2.40;;;;;;;;;;4932512;28;20269;-76
2022/09/17 08:55:41;;;;;;;12.20;2.50;;;;;;;;;;4954933;28;20277;-75
2022/09/17 08:58:27;;;;;;;11.67;2.70;;;;;;;;;;4977883;28;20230;-75
2022/09/17 09:01:08;;;;;;;5.30;2.00;;;;;;;;;;4974441;28;20236;-75
2022/09/17 09:03:59;;;;;;;11.57;2.50;;;;;;;;;;4973915;28;20224;-75
2022/09/17 09:06:35;;;;;;;6.83;2.40;;;;;;;;;;4968714;28;20237;-75
2022/09/17 09:09:10;;;;;;;7.13;2.03;;;;;;;;;;4960246;28;20317;-75
2022/09/17 09:11:39;;;;;;;11.57;2.57;;;;;;;;;;4959763;28;20233;-76
2022/09/17 09:14:20;;;;;;;10.60;1.97;;;;;;;;;;4926103;28;20260;-75
2022/09/17 09:16:48;;;;;;;6.83;1.90;;;;;;;;;;4986432;28;20230;-75
2022/09/17 09:19:40;;;;;;;7.37;2.00;;;;;;;;;;4969526;28;20241;-76
2022/09/17 09:22:45;;;;;;;7.23;2.17;;;;;;;;;;4966271;28;20210;-74
2022/09/17 09:25:19;;;;;;;8.37;2.27;;;;;;;;;;4975264;28;20230;-75
2022/09/17 09:27:59;;;;;;;6.80;2.00;;;;;;;;;;4957200;28;20223;-75
2022/09/17 09:30:25;;;;;;;5.20;1.63;;;;;;;;;;4977497;28;20234;-73
2022/09/17 09:33:07;;;;;;;4.27;1.37;;;;;;;;;;4961583;28;20229;-74
2022/09/17 09:35:35;;;;;;;5.30;1.60;;;;;;;;;;4967441;28;20352;-77
2022/09/17 09:38:03;;;;;;;7.23;1.67;;;;;;;;;;4975163;28;20292;-75
2022/09/17 09:40:55;;;;;;;5.17;1.57;;;;;;;;;;4956790;28;20232;-76
2022/09/17 09:43:39;;;;;;;7.90;1.50;;;;;;;;;;4955493;28;20234;-76
2022/09/17 09:46:25;;;;;;;3.83;1.40;;;;;;;;;;4951558;28;20226;-74
2022/09/17 09:49:25;;;;;;;4.77;1.40;;;;;;;;;;4945712;28;20218;-73
2022/09/17 09:52:20;;;;;;;4.03;1.20;;;;;;;;;;4959133;28;20234;-77
2022/09/17 09:54:58;;;;;;;4.67;1.40;;;;;;;;;;4977997;28;20299;-77
2022/09/17 09:57:54;;;;;;;4.73;1.70;;;;;;;;;;4962464;28;20229;-77
2022/09/17 10:00:27;;;;;;;6.73;1.43;;;;;;;;;;4976613;28;20703;-77
2022/09/17 10:03:13;;;;;;;3.90;1.40;;;;;;;;;;4967171;28;20254;-76
2022/09/17 10:06:01;;;;;;;4.70;1.50;;;;;;;;;;4990940;28;20253;-76
2022/09/17 10:08:35;;;;;;;2.97;1.27;;;;;;;;;;4940489;28;20229;-77
2022/09/17 10:11:07;;;;;;;5.37;1.10;;;;;;;;;;4955119;28;20736;-75
2022/09/17 10:13:38;;;;;;;1.57;0.70;;;;;;;;;;4947528;28;20221;-75
2022/09/17 10:16:24;;;;;;;1.70;0.60;;;;;;;;;;4969302;28;20250;-75
2022/09/17 10:18:50;;;;;;;3.90;0.87;;;;;;;;;;4956285;28;20250;-76
2022/09/17 10:21:31;;;;;;;2.40;0.70;;;;;;;;;;4952084;28;20280;-76
2022/09/17 10:23:59;;;;;;;5.20;1.10;;;;;;;;;;4970015;28;20339;-75
2022/09/17 10:26:28;;;;;;;1.93;0.40;;;;;;;;;;4949220;28;20724;-76
2022/09/17 10:28:57;;;;;;;1.40;0.43;;;;;;;;;;4956752;28;20229;-77
2022/09/17 10:31:26;;;;;;;1.37;0.53;;;;;;;;;;4943290;28;20234;-76
2022/09/17 10:34:00;;;;;;;1.40;0.60;;;;;;;;;;4946548;28;20238;-77
2022/09/17 10:36:43;;;;;;;1.83;0.57;;;;;;;;;;4963584;28;20217;-77
2022/09/17 10:39:18;;;;;;;1.23;0.60;;;;;;;;;;4974091;28;20709;-76
2022/09/17 10:42:13;;;;;;;2.27;0.73;;;;;;;;;;4944625;28;20230;-76
2022/09/17 10:44:59;;;;;;;2.70;0.70;;;;;;;;;;4971257;28;20233;-77
2022/09/17 10:47:28;;;;;;;2.10;0.70;;;;;;;;;;4951212;28;20356;-77
2022/09/17 10:50:00;;;;;;;1.90;0.80;;;;;;;;;;4964317;28;20229;-77
2022/09/17 10:52:41;;;;;;;2.17;0.67;;;;;;;;;;4939729;28;20275;-74
2022/09/17 10:55:15;;;;;;;1.93;0.30;;;;;;;;;;4952140;28;20233;-75
2022/09/17 10:58:01;;;;;;;2.03;0.70;;;;;;;;;;4967089;28;20221;-76
2022/09/17 11:00:29;;;;;;;2.23;0.80;;;;;;;;;;4986406;28;20225;-76
2022/09/17 11:03:03;;;;;;;4.07;0.83;;;;;;;;;;4960178;28;20233;-74
2022/09/17 11:05:44;;;;;;;2.13;0.80;;;;;;;;;;4957939;28;20256;-75
2022/09/17 11:08:39;;;;;;;5.03;0.80;;;;;;;;;;4990241;28;20294;-74
2022/09/17 11:11:19;;;;;;;1.83;0.63;;;;;;;;;;4974753;28;20235;-76
2022/09/17 11:14:00;;;;;;;2.17;0.87;;;;;;;;;;4944226;28;20303;-76
2022/09/17 11:16:47;;;;;;;2.23;1.00;;;;;;;;;;4990796;28;20232;-75
2022/09/17 11:19:57;;;;;;;0.93;0.70;;;;;;;;;;4993054;28;20222;-74
2022/09/17 11:22:44;;;;;;;1.43;0.70;;;;;;;;;;4963022;28;20286;-76
2022/09/17 11:25:23;;;;;;;1.90;0.90;;;;;;;;;;4977826;28;20229;-76
2022/09/17 11:27:54;;;;;;;3.23;0.80;;;;;;;;;;4963461;28;20712;-77
2022/09/17 11:30:22;;;;;;;2.10;0.87;;;;;;;;;;4949654;28;20242;-74
2022/09/17 11:33:28;;;;;;;1.23;0.77;;;;;;;;;;4946512;28;20234;-76
2022/09/17 11:36:11;;;;;;;1.70;0.80;;;;;;;;;;4937564;28;20305;-76
2022/09/17 11:38:44;;;;;;;2.10;0.80;;;;;;;;;;4952715;28;20282;-76
2022/09/17 11:41:17;;;;;;;2.50;1.00;;;;;;;;;;4942386;28;20304;-75
2022/09/17 11:44:23;;;;;;;4.03;1.10;;;;;;;;;;4940124;28;20701;-75
2022/09/17 11:47:09;;;;;;;2.97;1.20;;;;;;;;;;4942526;28;20241;-75
2022/09/17 11:49:41;;;;;;;2.67;1.23;;;;;;;;;;4986366;28;20240;-75
2022/09/17 11:52:08;;;;;;;2.07;1.00;;;;;;;;;;4964377;28;20257;-76
2022/09/17 11:54:45;;;;;;;2.57;0.93;;;;;;;;;;4986104;28;20696;-74
2022/09/17 11:57:12;;;;;;;4.57;1.13;;;;;;;;;;4927809;28;20258;-75
2022/09/17 11:59:50;;;;;;;3.80;1.03;;;;;;;;;;4957865;28;20235;-74
2022/09/17 12:02:45;;;;;;;3.53;1.27;;;;;;;;;;4973475;28;20752;-76
2022/09/17 12:05:18;;;;;;;4.47;1.20;;;;;;;;;;4946733;28;20221;-75
2022/09/17 12:07:56;;;;;;;3.40;1.30;;;;;;;;;;4973984;28;20230;-75
2022/09/17 12:10:30;;;;;;;2.73;1.23;;;;;;;;;;4955401;28;20230;-75
2022/09/17 12:13:10;;;;;;;2.93;1.20;;;;;;;;;;4967137;28;20261;-74
2022/09/17 12:15:40;;;;;;;1.63;1.07;;;;;;;;;;4954710;28;20227;-76
2022/09/17 12:18:24;;;;;;;5.53;1.20;;;;;;;;;;4930115;28;20225;-76
2022/09/17 12:20:53;;;;;;;5.60;1.50;;;;;;;;;;4957022;28;20288;-75
2022/09/17 12:23:48;;;;;;;3.90;1.13;;;;;;;;;;4945804;28;20310;-75
2022/09/17 12:26:42;;;;;;;3.73;1.23;;;;;;;;;;4963059;28;20222;-75
2022/09/17 12:29:13;;;;;;;4.77;1.60;;;;;;;;;;4970907;28;20262;-75
2022/09/17 12:31:45;;;;;;;6.83;1.37;;;;;;;;;;4972575;28;20236;-76
2022/09/17 12:34:44;;;;;;;8.30;1.40;;;;;;;;;;4956198;28;20225;-75
2022/09/17 12:37:26;;;;;;;4.03;1.10;;;;;;;;;;4978033;28;20229;-73
2022/09/17 12:40:20;;;;;;;3.33;1.20;;;;;;;;;;4946855;28;20712;-73
2022/09/17 12:42:54;;;;;;;6.07;1.60;;;;;;;;;;4979257;28;20632;-75
2022/09/17 12:45:22;;;;;;;4.77;1.70;;;;;;;;;;4974786;28;20308;-72
2022/09/17 12:48:12;;;;;;;7.73;1.40;;;;;;;;;;4946503;28;20226;-74
2022/09/17 12:50:40;;;;;;;4.23;1.80;;;;;;;;;;4968038;28;20242;-75
2022/09/17 12:53:15;;;;;;;6.00;1.97;;;;;;;;;;4970180;28;20256;-75
2022/09/17 12:55:55;;;;;;;6.17;2.10;;;;;;;;;;4969648;28;20765;-74
2022/09/17 12:58:39;;;;;;;4.27;1.77;;;;;;;;;;4973458;28;20238;-75
2022/09/17 13:01:23;;;;;;;6.10;1.73;;;;;;;;;;4962006;28;20841;-75
2022/09/17 13:03:49;;;;;;;3.97;1.30;;;;;;;;;;4938496;28;20230;-75
2022/09/17 13:06:33;;;;;;;3.23;1.03;;;;;;;;;;4931043;28;20222;-75
2022/09/17 13:09:10;;;;;;;3.17;1.50;;;;;;;;;;4951266;28;20218;-74
2022/09/17 13:11:44;;;;;;;3.53;1.60;;;;;;;;;;4971778;28;20590;-75
2022/09/17 13:14:24;;;;;;;3.20;1.40;;;;;;;;;;4960249;28;20233;-75
2022/09/17 13:17:02;;;;;;;4.30;1.50;;;;;;;;;;4975473;28;20305;-76
2022/09/17 13:19:48;;;;;;;7.20;1.87;;;;;;;;;;4931140;28;20227;-75
2022/09/17 13:22:16;;;;;;;6.50;1.40;;;;;;;;;;4955481;28;20258;-75
2022/09/17 13:24:46;;;;;;;10.27;1.70;;;;;;;;;;4975901;28;20222;-74
2022/09/17 13:27:25;;;;;;;6.93;1.30;;;;;;;;;;4954964;28;20238;-74
2022/09/17 13:29:54;;;;;;;8.23;1.87;;;;;;;;;;4973635;28;20245;-74
2022/09/17 13:32:33;;;;;;;4.80;1.73;;;;;;;;;;4960710;28;20292;-73
2022/09/17 13:35:08;;;;;;;4.03;1.30;;;;;;;;;;4990469;28;20226;-73
2022/09/17 13:37:54;;;;;;;6.77;1.80;;;;;;;;;;4969945;28;20717;-76
2022/09/17 13:40:27;;;;;;;4.47;1.60;;;;;;;;;;4956360;28;20296;-75
2022/09/17 13:43:13;;;;;;;4.73;1.70;;;;;;;;;;4946265;28;20225;-74
2022/09/17 13:45:57;;;;;;;5.63;1.83;;;;;;;;;;4944399;28;20257;-74
2022/09/17 13:48:23;;;;;;;3.53;1.47;;;;;;;;;;4976457;28;20236;-73
2022/09/17 13:50:49;;;;;;;8.37;1.80;;;;;;;;;;4945880;28;20233;-73
2022/09/17 13:53:14;;;;;;;5.87;1.77;;;;;;;;;;4959141;28;20233;-75
2022/09/17 13:55:44;;;;;;;5.37;1.77;;;;;;;;;;4977035;28;20316;-77
2022/09/17 13:58:22;;;;;;;5.77;1.63;;;;;;;;;;4973686;28;20233;-74
2022/09/17 14:01:45;;;;;;;14.50;9.40;;;;;;;;;;4962416;28;20229;-72
2022/09/17 14:04:33;;;;;;;4.83;1.73;;;;;;;;;;4915350;28;20226;-76
2022/09/17 14:07:00;;;;;;;5.30;2.03;;;;;;;;;;4962651;28;20237;-73
2022/09/17 14:09:50;;;;;;;4.33;1.53;;;;;;;;;;4943116;28;20229;-75
2022/09/17 14:12:37;;;;;;;8.33;1.93;;;;;;;;;;4950743;28;20238;-73
2022/09/17 14:15:03;;;;;;;6.50;1.80;;;;;;;;;;4960260;28;20724;-73
2022/09/17 14:17:49;;;;;;;5.33;1.80;;;;;;;;;;4935393;28;20728;-75
2022/09/17 14:20:17;;;;;;;5.83;1.50;;;;;;;;;;4982744;28;20240;-73
2022/09/17 14:22:55;;;;;;;8.23;1.97;;;;;;;;;;4945784;28;20241;-75
2022/09/17 14:25:21;;;;;;;4.93;1.80;;;;;;;;;;4973870;28;20244;-77
2022/09/17 14:27:59;;;;;;;6.83;1.50;;;;;;;;;;4948393;28;20230;-77
2022/09/17 14:30:31;;;;;;;3.53;1.20;;;;;;;;;;4957393;28;20232;-74
2022/09/17 14:33:00;;;;;;;5.03;1.40;;;;;;;;;;4975324;28;20233;-73
2022/09/17 14:35:30;;;;;;;3.37;1.30;;;;;;;;;;4974967;28;20241;-73
2022/09/17 14:38:09;;;;;;;7.93;2.17;;;;;;;;;;4973765;28;20230;-75
2022/09/17 14:40:37;;;;;;;6.50;1.53;;;;;;;;;;4963433;28;20266;-75
2022/09/17 14:43:05;;;;;;;3.53;1.30;;;;;;;;;;4968793;28;20252;-75
2022/09/17 14:45:42;;;;;;;6.23;1.60;;;;;;;;;;4948477;28;20218;-73
2022/09/17 14:48:30;;;;;;;6.00;1.57;;;;;;;;;;4948313;28;20251;-77
2022/09/17 14:51:17;;;;;;;5.93;1.67;;;;;;;;;;4965969;28;20226;-72
2022/09/17 14:53:48;;;;;;;5.57;1.57;;;;;;;;;;4977511;28;20221;-75
2022/09/17 14:56:16;;;;;;;6.03;1.93;;;;;;;;;;4947058;28;20249;-73
2022/09/17 14:58:46;;;;;;;5.03;2.07;;;;;;;;;;4961613;28;20333;-74
2022/09/17 15:01:27;;;;;;;6.97;1.57;;;;;;;;;;4961127;28;20661;-77
2022/09/17 15:04:32;;;;;;;6.37;2.20;;;;;;;;;;4978471;28;20774;-76
2022/09/17 15:07:10;;;;;;;3.10;1.80;;;;;;;;;;4974282;28;20672;-75
2022/09/17 15:09:35;;;;;;;5.27;1.80;;;;;;;;;;4957640;28;20228;-75
2022/09/17 15:12:01;;;;;;;5.80;1.67;;;;;;;;;;4974719;28;20234;-75
2022/09/17 15:14:35;;;;;;;3.43;1.40;;;;;;;;;;4967149;28;20234;-75
2022/09/17 15:17:01;;;;;;;7.67;2.17;;;;;;;;;;4961567;28;20226;-74